createdAt,value
2024-03-14T00:01:39.442Z,3.67
2024-03-14T00:04:07.835Z,3.87
2024-03-14T00:06:36.541Z,3.80
2024-03-14T00:09:04.925Z,3.83
2024-03-14T00:11:33.527Z,3.23
2024-03-14T00:14:01.905Z,3.50
2024-03-14T00:16:31.507Z,3.20
2024-03-14T00:19:00.918Z,2.77
2024-03-14T00:21:29.423Z,2.30
2024-03-14T00:23:58.761Z,2.00
2024-03-14T00:26:27.722Z,2.30
2024-03-14T00:28:55.947Z,2.50
2024-03-14T00:31:25.857Z,2.40
2024-03-14T00:33:54.206Z,2.53
2024-03-14T00:36:22.697Z,2.30
2024-03-14T00:38:51.124Z,2.27
2024-03-14T00:41:21.020Z,2.10
2024-03-14T00:43:50.148Z,2.77
2024-03-14T00:46:18.420Z,2.33
2024-03-14T00:48:46.786Z,2.53
2024-03-14T00:51:15.469Z,2.83
2024-03-14T00:53:43.845Z,2.93
2024-03-14T00:56:13.532Z,3.00
2024-03-14T00:58:42.773Z,3.00
2024-03-14T01:01:11.116Z,3.07
2024-03-14T01:03:39.561Z,3.00
2024-03-14T01:06:12.163Z,3.00
2024-03-14T01:08:41.973Z,3.27
2024-03-14T01:11:10.418Z,3.63
2024-03-14T01:13:38.670Z,3.50
2024-03-14T01:16:09.659Z,3.93
2024-03-14T01:18:37.969Z,3.77
2024-03-14T01:21:09.273Z,3.40
2024-03-14T01:23:38.510Z,3.77
2024-03-14T01:26:06.819Z,3.30
2024-03-14T01:28:35.925Z,3.50
2024-03-14T01:31:29.556Z,3.30
2024-03-14T01:33:58.369Z,3.60
2024-03-14T01:36:29.885Z,3.13
2024-03-14T01:38:58.981Z,2.70
2024-03-14T01:41:27.569Z,3.20
2024-03-14T01:43:59.201Z,3.30
2024-03-14T01:46:28.807Z,3.37
2024-03-14T01:48:57.459Z,3.73
2024-03-14T01:51:25.936Z,3.77
2024-03-14T01:53:57.029Z,3.67
2024-03-14T01:56:25.850Z,4.00
2024-03-14T01:58:54.522Z,3.60
2024-03-14T02:01:23.403Z,3.97
2024-03-14T02:03:52.812Z,3.77
2024-03-14T02:06:21.917Z,4.20
2024-03-14T02:08:50.218Z,3.77
2024-03-14T02:11:19.952Z,4.13
2024-03-14T02:13:48.318Z,3.57
2024-03-14T02:16:16.632Z,3.50
2024-03-14T02:18:46.963Z,4.40
2024-03-14T02:21:15.365Z,3.67
2024-03-14T02:23:43.637Z,4.43
2024-03-14T02:26:11.963Z,3.97
2024-03-14T02:28:39.324Z,4.03
2024-03-14T02:31:08.467Z,4.13
2024-03-14T02:33:36.793Z,4.00
2024-03-14T02:36:06.351Z,3.63
2024-03-14T02:38:35.419Z,4.50
2024-03-14T02:41:04.275Z,4.20
2024-03-14T02:43:32.569Z,4.07
2024-03-14T02:46:01.949Z,3.80
2024-03-14T02:48:56.195Z,3.67
2024-03-14T02:51:25.140Z,4.10
2024-03-14T02:53:53.608Z,4.30
2024-03-14T02:56:21.953Z,3.90
2024-03-14T02:58:50.481Z,4.10
2024-03-14T03:01:20.518Z,3.60
2024-03-14T03:03:51.382Z,4.03
2024-03-14T03:06:19.741Z,3.87
2024-03-14T03:08:48.060Z,3.60
2024-03-14T03:11:16.678Z,3.63
2024-03-14T03:13:45.994Z,3.40
2024-03-14T03:16:15.116Z,3.70
2024-03-14T03:18:43.608Z,3.40
2024-03-14T03:21:12.290Z,3.57
2024-03-14T03:23:40.898Z,3.63
2024-03-14T03:26:09.289Z,3.77
2024-03-14T03:28:37.527Z,3.07
2024-03-14T03:31:09.645Z,3.67
2024-03-14T03:33:38.044Z,3.83
2024-03-14T03:36:09.086Z,3.10
2024-03-14T03:38:39.260Z,3.83
2024-03-14T03:41:07.385Z,3.40
2024-03-14T03:43:35.735Z,3.47
2024-03-14T03:46:03.011Z,3.10
2024-03-14T03:48:31.403Z,3.90
2024-03-14T03:50:58.709Z,3.67
2024-03-14T03:53:27.043Z,3.37
2024-03-14T03:55:54.526Z,3.53
2024-03-14T03:58:23.702Z,3.63
2024-03-14T04:00:55.293Z,3.57
2024-03-14T04:03:23.656Z,3.37
2024-03-14T04:05:51.294Z,3.27
2024-03-14T04:08:19.528Z,3.73
2024-03-14T04:10:46.819Z,3.43
2024-03-14T04:13:17.609Z,3.90
2024-03-14T04:15:47.683Z,3.20
2024-03-14T04:18:16.230Z,3.60
2024-03-14T04:20:44.525Z,3.70
2024-03-14T04:23:12.758Z,3.57
2024-03-14T04:25:42.205Z,4.00
2024-03-14T04:28:10.491Z,3.73
2024-03-14T04:30:39.238Z,4.30
2024-03-14T04:33:10.073Z,4.00
2024-03-14T04:35:38.477Z,3.47
2024-03-14T04:38:06.809Z,3.20
2024-03-14T04:40:35.038Z,3.60
2024-03-14T04:43:04.923Z,3.17
2024-03-14T04:45:33.298Z,3.37
2024-03-14T04:48:06.913Z,3.13
2024-03-14T04:50:36.289Z,3.60
2024-03-14T04:53:05.597Z,3.00
2024-03-14T04:55:34.785Z,3.20
2024-03-14T04:58:03.028Z,3.50
2024-03-14T05:00:34.121Z,3.77
2024-03-14T05:03:02.677Z,4.00
2024-03-14T05:05:31.125Z,4.20
2024-03-14T05:08:00.938Z,4.13
2024-03-14T05:10:54.221Z,4.13
2024-03-14T05:13:24.244Z,4.70
2024-03-14T05:15:53.771Z,4.60
2024-03-14T05:18:23.014Z,4.70
2024-03-14T05:20:51.351Z,4.43
2024-03-14T05:23:19.656Z,4.43
2024-03-14T05:25:48.828Z,4.60
2024-03-14T05:28:17.687Z,5.43
2024-03-14T05:30:46.005Z,4.90
2024-03-14T05:33:14.392Z,4.90
2024-03-14T05:35:42.746Z,5.20
2024-03-14T05:38:11.095Z,4.50
2024-03-14T05:40:39.403Z,4.50
2024-03-14T05:43:07.646Z,4.93
2024-03-14T05:45:36.729Z,4.73
2024-03-14T05:48:10.550Z,4.67
2024-03-14T05:50:39.174Z,4.57
2024-03-14T05:53:08.860Z,4.80
2024-03-14T05:55:37.398Z,4.63
2024-03-14T05:58:06.562Z,4.70
2024-03-14T06:00:35.016Z,4.63
2024-03-14T06:03:27.745Z,4.20
2024-03-14T06:05:56.279Z,4.43
2024-03-14T06:08:24.780Z,4.40
2024-03-14T06:10:53.178Z,4.47
2024-03-14T06:13:21.498Z,4.47
2024-03-14T06:15:49.871Z,4.13
2024-03-14T06:18:20.540Z,4.47
2024-03-14T06:20:48.969Z,4.10
2024-03-14T06:23:20.908Z,4.03
2024-03-14T06:25:49.571Z,4.40
2024-03-14T06:28:17.980Z,4.10
2024-03-14T06:30:48.629Z,4.90
2024-03-14T06:33:18.148Z,5.53
2024-03-14T06:35:46.462Z,5.60
2024-03-14T06:38:15.747Z,5.20
2024-03-14T06:40:44.050Z,5.80
2024-03-14T06:43:12.361Z,5.13
2024-03-14T06:45:40.811Z,5.60
2024-03-14T06:48:10.442Z,5.57
2024-03-14T06:50:38.840Z,5.40
2024-03-14T06:53:13.180Z,5.83
2024-03-14T06:55:44.141Z,6.00
2024-03-14T06:58:12.521Z,5.13
2024-03-14T07:00:41.999Z,6.37
2024-03-14T07:03:13.272Z,5.90
2024-03-14T07:05:44.040Z,5.80
2024-03-14T07:08:12.948Z,6.53
2024-03-14T07:10:41.757Z,6.53
2024-03-14T07:13:13.070Z,6.37
2024-03-14T07:15:43.239Z,6.23
2024-03-14T07:18:12.706Z,5.93
2024-03-14T07:20:44.584Z,6.10
2024-03-14T07:23:14.601Z,6.23
2024-03-14T07:25:43.166Z,7.07
2024-03-14T07:28:13.972Z,6.47
2024-03-14T07:30:45.088Z,5.37
2024-03-14T07:33:13.384Z,6.07
2024-03-14T07:35:46.128Z,5.87
2024-03-14T07:38:15.943Z,6.70
2024-03-14T07:40:45.412Z,6.30
2024-03-14T07:43:13.906Z,5.53
2024-03-14T07:45:42.356Z,5.50
2024-03-14T07:48:11.358Z,5.53
2024-03-14T07:50:39.720Z,6.10
2024-03-14T07:53:11.059Z,5.30
2024-03-14T07:55:40.493Z,5.27
2024-03-14T07:58:09.503Z,5.40
2024-03-14T08:00:38.385Z,6.03
2024-03-14T08:06:00.383Z,5.00
2024-03-14T08:08:29.137Z,5.27
2024-03-14T08:10:57.437Z,5.13
2024-03-14T08:13:27.206Z,5.47
2024-03-14T08:16:00.839Z,5.90
2024-03-14T08:18:31.390Z,5.00
2024-03-14T08:21:00.191Z,4.77
2024-03-14T08:23:29.454Z,5.43
2024-03-14T08:25:58.286Z,5.47
2024-03-14T08:28:26.642Z,5.27
2024-03-14T08:30:54.965Z,5.40
2024-03-14T08:33:25.151Z,5.23
2024-03-14T08:35:54.607Z,4.93
2024-03-14T08:38:23.555Z,5.10
2024-03-14T08:40:52.848Z,4.27
2024-03-14T08:43:21.059Z,4.97
2024-03-14T08:45:52.186Z,4.47
2024-03-14T08:48:22.534Z,4.23
2024-03-14T08:50:51.291Z,4.23
2024-03-14T08:53:19.572Z,4.37
2024-03-14T08:55:53.990Z,4.57
2024-03-14T08:58:23.090Z,4.53
2024-03-14T09:00:51.551Z,4.07
2024-03-14T09:03:20.076Z,3.93
2024-03-14T09:05:50.431Z,4.27
2024-03-14T09:08:20.066Z,3.90
2024-03-14T09:10:48.429Z,3.60
2024-03-14T09:13:16.689Z,3.90
2024-03-14T09:15:45.095Z,3.50
2024-03-14T09:18:16.253Z,2.90
2024-03-14T09:20:49.511Z,3.13
2024-03-14T09:23:21.443Z,3.00
2024-03-14T09:25:49.915Z,3.10
2024-03-14T09:28:18.163Z,2.97
2024-03-14T09:30:46.633Z,3.20
2024-03-14T09:33:15.076Z,3.17
2024-03-14T09:35:46.974Z,2.50
2024-03-14T09:38:16.398Z,2.97
2024-03-14T09:40:45.600Z,3.40
2024-03-14T09:43:16.062Z,3.27
2024-03-14T09:45:45.754Z,2.87
2024-03-14T09:48:14.373Z,2.90
2024-03-14T09:50:43.328Z,2.97
2024-03-14T09:53:15.801Z,2.80
2024-03-14T09:55:44.100Z,3.20
2024-03-14T09:58:15.892Z,3.27
2024-03-14T10:00:44.950Z,3.63
2024-03-14T10:03:14.540Z,3.73
2024-03-14T10:05:47.410Z,2.80
2024-03-14T10:08:17.201Z,2.53
2024-03-14T10:10:45.611Z,2.33
2024-03-14T10:13:14.190Z,2.80
2024-03-14T10:15:43.245Z,2.43
2024-03-14T10:18:20.803Z,2.60
2024-03-14T10:20:49.079Z,2.43
2024-03-14T10:23:19.004Z,2.20
2024-03-14T10:25:51.688Z,2.20
2024-03-14T10:28:21.754Z,2.30
2024-03-14T10:30:53.410Z,2.00
2024-03-14T10:33:22.655Z,2.13
2024-03-14T10:35:56.973Z,2.10
2024-03-14T10:38:28.519Z,2.67
2024-03-14T10:40:59.664Z,2.00
2024-03-14T10:43:28.445Z,2.00
2024-03-14T10:45:56.723Z,1.77
2024-03-14T10:48:25.169Z,2.00
2024-03-14T10:50:55.669Z,1.60
2024-03-14T10:53:25.496Z,1.93
2024-03-14T10:55:56.334Z,1.80
2024-03-14T10:58:26.659Z,1.87
2024-03-14T11:00:55.068Z,1.40
2024-03-14T11:03:23.692Z,1.30
2024-03-14T11:05:52.323Z,1.00
2024-03-14T11:08:21.871Z,1.20
2024-03-14T11:10:50.291Z,1.50
2024-03-14T11:13:18.880Z,1.10
2024-03-14T11:15:47.770Z,1.30
2024-03-14T11:18:17.771Z,1.10
2024-03-14T11:20:52.430Z,1.27
2024-03-14T11:32:14.878Z,1.00
2024-03-14T11:34:43.815Z,1.27
2024-03-14T11:37:12.985Z,1.20
2024-03-14T11:39:41.357Z,1.47
2024-03-14T11:42:11.484Z,1.13
2024-03-14T11:44:40.766Z,1.27
2024-03-14T11:47:14.972Z,1.00
2024-03-14T11:49:44.553Z,0.90
2024-03-14T11:52:12.971Z,0.90
2024-03-14T11:54:41.462Z,0.80
2024-03-14T11:57:10.057Z,0.83
2024-03-14T11:59:43.644Z,1.00
2024-03-14T12:02:21.018Z,0.87
2024-03-14T12:04:50.467Z,1.20
2024-03-14T12:07:18.685Z,1.07
2024-03-14T12:09:46.906Z,0.80
2024-03-14T12:12:15.507Z,1.13
2024-03-14T12:14:43.738Z,0.80
2024-03-14T12:17:18.643Z,0.50
2024-03-14T12:19:47.157Z,0.60
2024-03-14T12:22:20.390Z,0.50
2024-03-14T12:24:55.420Z,0.30
2024-03-14T12:27:28.292Z,0.60
2024-03-14T12:29:59.785Z,0.60
2024-03-14T12:32:30.918Z,0.60
2024-03-14T12:37:57.792Z,0.83
2024-03-14T12:40:26.085Z,0.80
2024-03-14T12:42:55.039Z,0.60
2024-03-14T12:45:26.715Z,0.30
2024-03-14T12:47:55.972Z,0.43
2024-03-14T12:50:25.390Z,0.30
2024-03-14T12:53:27.600Z,0.80
2024-03-14T12:55:56.663Z,0.50
2024-03-14T12:58:27.008Z,0.40
2024-03-14T13:00:55.851Z,0.30
2024-03-14T13:03:24.424Z,0.50
2024-03-14T13:05:52.926Z,0.53
2024-03-14T13:08:22.340Z,0.53
2024-03-14T13:10:51.271Z,0.50
2024-03-14T13:13:21.503Z,0.63
2024-03-14T13:15:53.981Z,0.60
2024-03-14T13:18:23.193Z,0.60
2024-03-14T13:20:57.681Z,0.63
2024-03-14T13:23:30.661Z,1.00
2024-03-14T13:25:58.920Z,0.80
2024-03-14T13:28:27.109Z,1.03
2024-03-14T13:30:55.323Z,0.70
2024-03-14T13:33:25.656Z,1.27
2024-03-14T13:35:54.109Z,1.20
2024-03-14T13:38:26.930Z,1.50
2024-03-14T13:40:58.531Z,1.20
2024-03-14T13:43:27.516Z,1.30
2024-03-14T13:45:55.779Z,1.53
2024-03-14T13:48:24.694Z,1.50
2024-03-14T13:50:54.912Z,1.30
2024-03-14T13:53:32.643Z,0.90
2024-03-14T13:56:02.343Z,1.30
2024-03-14T13:58:37.385Z,1.17
2024-03-14T14:01:20.444Z,1.10
2024-03-14T14:03:50.939Z,1.40
2024-03-14T14:06:19.314Z,0.87
2024-03-14T14:08:48.303Z,1.40
2024-03-14T14:11:17.532Z,1.30
2024-03-14T14:13:47.777Z,1.43
2024-03-14T14:16:18.136Z,1.63
2024-03-14T14:18:47.074Z,1.80
2024-03-14T14:21:15.983Z,1.77
2024-03-14T14:23:44.551Z,1.30
2024-03-14T14:26:14.350Z,1.40
2024-03-14T14:28:44.500Z,1.30
2024-03-14T14:31:15.466Z,1.37
2024-03-14T14:33:44.207Z,1.37
2024-03-14T14:36:13.250Z,1.43
2024-03-14T14:38:41.755Z,1.90
2024-03-14T14:41:10.232Z,1.63
2024-03-14T14:43:38.582Z,1.80
2024-03-14T14:46:33.892Z,1.40
2024-03-14T14:49:03.034Z,1.30
2024-03-14T14:51:56.117Z,1.10
2024-03-14T14:54:24.374Z,1.50
2024-03-14T14:56:52.693Z,1.40
2024-03-14T14:59:23.024Z,1.30
2024-03-14T15:01:51.396Z,1.40
2024-03-14T15:04:20.185Z,1.20
2024-03-14T15:06:48.507Z,1.60
2024-03-14T15:09:17.753Z,1.30
2024-03-14T15:11:47.553Z,1.53
2024-03-14T15:14:16.494Z,1.10
2024-03-14T15:16:44.762Z,1.10
2024-03-14T15:19:16.645Z,1.60
2024-03-14T15:21:47.169Z,1.20
2024-03-14T15:24:19.931Z,1.20
2024-03-14T15:26:49.305Z,1.37
2024-03-14T15:29:17.489Z,1.20
2024-03-14T15:31:46.243Z,1.20
2024-03-14T15:34:17.977Z,1.40
2024-03-14T15:36:47.400Z,1.17
2024-03-14T15:39:16.016Z,0.87
2024-03-14T15:41:44.845Z,1.10
2024-03-14T15:44:13.083Z,1.00
2024-03-14T15:46:41.418Z,0.90
2024-03-14T15:49:09.644Z,1.20
2024-03-14T15:51:39.309Z,1.30
2024-03-14T15:54:09.229Z,0.80
2024-03-14T15:56:37.438Z,1.03
2024-03-14T15:59:06.579Z,1.20
2024-03-14T16:01:36.063Z,1.20
2024-03-14T16:04:07.949Z,1.03
2024-03-14T16:06:37.967Z,1.20
2024-03-14T16:09:06.340Z,1.33
2024-03-14T16:11:35.329Z,1.10
2024-03-14T16:14:03.684Z,1.30
2024-03-14T16:16:33.973Z,1.27
2024-03-14T16:19:05.593Z,1.10
2024-03-14T16:21:38.864Z,1.20
2024-03-14T16:24:10.588Z,1.20
2024-03-14T16:26:39.776Z,1.63
2024-03-14T16:29:09.555Z,1.27
2024-03-14T16:31:38.544Z,1.23
2024-03-14T16:34:08.326Z,1.10
2024-03-14T16:36:36.767Z,0.90
2024-03-14T16:39:09.223Z,0.97
2024-03-14T16:41:37.548Z,0.80
2024-03-14T16:44:05.937Z,0.67
2024-03-14T16:46:39.409Z,0.60
2024-03-14T16:49:08.959Z,0.60
2024-03-14T16:51:37.332Z,0.70
2024-03-14T16:54:06.984Z,0.60
2024-03-14T16:56:35.549Z,0.60
2024-03-14T16:59:04.306Z,0.30
2024-03-14T17:01:33.341Z,0.70
2024-03-14T17:04:01.662Z,0.60
2024-03-14T17:06:30.373Z,0.60
2024-03-14T17:08:58.710Z,0.60
2024-03-14T17:11:27.035Z,0.70
2024-03-14T17:13:56.863Z,0.63
2024-03-14T17:16:25.409Z,0.53
2024-03-14T17:18:53.977Z,0.63
2024-03-14T17:21:22.434Z,0.67
2024-03-14T17:23:50.896Z,0.60
2024-03-14T17:26:19.203Z,0.60
2024-03-14T17:28:47.405Z,0.60
2024-03-14T17:31:18.348Z,0.43
2024-03-14T17:33:48.159Z,0.53
2024-03-14T17:36:18.638Z,0.70
2024-03-14T17:38:47.123Z,0.70
2024-03-14T17:41:15.799Z,0.63
2024-03-14T17:43:44.173Z,0.70
2024-03-14T17:46:14.502Z,0.57
2024-03-14T17:48:44.039Z,0.77
2024-03-14T17:54:05.353Z,0.70
2024-03-14T17:56:41.733Z,1.50
2024-03-14T17:59:13.529Z,7.43
2024-03-14T18:01:42.720Z,8.77
2024-03-14T18:04:13.483Z,11.53
2024-03-14T18:06:43.170Z,11.80
2024-03-14T18:09:12.498Z,12.70
2024-03-14T18:11:42.432Z,12.37
2024-03-14T18:14:10.696Z,10.17
2024-03-14T18:16:39.897Z,5.77
2024-03-14T18:19:10.143Z,3.10
2024-03-14T18:21:39.981Z,2.60
2024-03-14T18:24:09.567Z,4.20
2024-03-14T18:26:37.818Z,8.27
2024-03-14T18:29:06.174Z,9.07
2024-03-14T18:31:34.483Z,8.50
2024-03-14T18:34:02.849Z,8.20
2024-03-14T18:36:32.978Z,5.47
2024-03-14T18:39:01.484Z,4.63
2024-03-14T18:41:29.722Z,4.13
2024-03-14T18:44:02.307Z,5.60
2024-03-14T18:46:30.758Z,5.90
2024-03-14T18:49:07.596Z,3.87
2024-03-14T18:51:42.956Z,2.17
2024-03-14T18:54:12.218Z,1.87
2024-03-14T18:56:43.408Z,1.50
2024-03-14T18:59:14.252Z,1.77
2024-03-14T19:01:44.143Z,2.63
2024-03-14T19:04:13.571Z,2.23
2024-03-14T19:06:43.742Z,2.27
2024-03-14T19:09:12.562Z,2.43
2024-03-14T19:11:41.574Z,1.80
2024-03-14T19:14:11.347Z,2.00
2024-03-14T19:16:40.200Z,1.20
2024-03-14T19:22:03.221Z,3.63
2024-03-14T19:24:33.197Z,4.23
2024-03-14T19:27:02.315Z,5.37
2024-03-14T19:29:30.989Z,3.63
2024-03-14T19:32:00.187Z,3.73
2024-03-14T19:34:28.930Z,3.77
2024-03-14T19:36:59.558Z,3.20
2024-03-14T19:39:30.077Z,3.43
2024-03-14T19:41:58.462Z,2.87
2024-03-14T19:44:29.317Z,2.87
2024-03-14T19:46:58.432Z,2.70
2024-03-14T19:49:26.941Z,1.90
2024-03-14T19:51:55.758Z,1.70
2024-03-14T19:54:24.152Z,1.63
2024-03-14T19:56:52.439Z,1.80
2024-03-14T19:59:22.540Z,1.70
2024-03-14T20:01:51.214Z,1.57
2024-03-14T20:04:19.765Z,1.90
2024-03-14T20:06:48.247Z,1.97
2024-03-14T20:09:16.559Z,1.80
2024-03-14T20:11:45.265Z,1.93
2024-03-14T20:14:13.869Z,1.93
2024-03-14T20:16:43.738Z,2.20
2024-03-14T20:19:12.097Z,2.40
2024-03-14T20:21:40.722Z,2.80
2024-03-14T20:24:09.149Z,3.20
2024-03-14T20:26:37.493Z,2.90
2024-03-14T20:29:06.596Z,4.90
2024-03-14T20:31:35.649Z,3.40
2024-03-14T20:34:05.079Z,2.00
2024-03-14T20:36:33.364Z,2.50
2024-03-14T20:41:33.026Z,1.90
2024-03-14T20:44:01.906Z,1.63
2024-03-14T20:46:30.169Z,1.50
2024-03-14T20:48:58.670Z,1.57
2024-03-14T20:51:29.099Z,1.40
2024-03-14T20:53:57.740Z,1.70
2024-03-14T20:56:26.104Z,1.47
2024-03-14T20:58:56.694Z,1.60
2024-03-14T21:01:24.943Z,1.50
2024-03-14T21:03:53.311Z,1.80
2024-03-14T21:06:23.586Z,1.60
2024-03-14T21:08:54.294Z,1.63
2024-03-14T21:11:22.768Z,1.50
2024-03-14T21:14:00.659Z,1.70
2024-03-14T21:16:54.355Z,1.63
2024-03-14T21:19:22.903Z,1.90
2024-03-14T21:21:52.195Z,1.83
2024-03-14T21:24:20.639Z,1.60
2024-03-14T21:26:51.544Z,1.30
2024-03-14T21:29:19.908Z,1.70
2024-03-14T21:31:48.465Z,1.50
2024-03-14T21:34:16.667Z,1.43
2024-03-14T21:36:45.700Z,1.83
2024-03-14T21:39:14.115Z,1.90
2024-03-14T21:41:42.348Z,1.90
2024-03-14T21:44:11.015Z,1.50
2024-03-14T21:46:41.208Z,1.57
2024-03-14T21:49:09.821Z,1.70
2024-03-14T21:51:38.072Z,1.60
2024-03-14T21:54:13.407Z,2.20
2024-03-14T21:56:45.959Z,1.60
2024-03-14T21:59:14.809Z,1.67
2024-03-14T22:01:43.638Z,2.00
2024-03-14T22:04:13.046Z,1.83
2024-03-14T22:06:41.290Z,2.00
2024-03-14T22:09:14.637Z,2.00
2024-03-14T22:11:43.145Z,2.20
2024-03-14T22:14:12.203Z,2.17
2024-03-14T22:16:40.576Z,2.03
2024-03-14T22:19:11.183Z,1.60
2024-03-14T22:21:41.574Z,1.70
2024-03-14T22:24:10.125Z,2.07
2024-03-14T22:26:39.769Z,2.00
2024-03-14T22:29:08.854Z,2.10
2024-03-14T22:31:38.288Z,2.50
2024-03-14T22:34:07.195Z,2.10
2024-03-14T22:36:37.944Z,1.93
2024-03-14T22:39:06.232Z,1.97
2024-03-14T22:41:34.522Z,2.00
2024-03-14T22:44:02.776Z,2.30
2024-03-14T22:46:30.982Z,2.77
2024-03-14T22:49:01.248Z,2.10
2024-03-14T22:51:31.867Z,2.03
2024-03-14T22:54:02.576Z,1.97
2024-03-14T22:56:30.879Z,1.90
2024-03-14T22:58:59.151Z,2.13
2024-03-14T23:01:28.612Z,1.97
2024-03-14T23:03:57.073Z,2.27
2024-03-14T23:06:25.814Z,2.00
2024-03-14T23:08:55.483Z,2.23
2024-03-14T23:11:23.800Z,2.33
2024-03-14T23:13:52.334Z,2.53
2024-03-14T23:16:20.634Z,2.30
2024-03-14T23:18:48.880Z,2.30
2024-03-14T23:21:17.276Z,2.53
2024-03-14T23:23:46.107Z,2.13
2024-03-14T23:26:22.218Z,2.23
2024-03-14T23:28:53.724Z,1.80
2024-03-14T23:31:21.961Z,2.70
2024-03-14T23:33:51.827Z,2.63
2024-03-14T23:36:20.295Z,2.70
2024-03-14T23:38:48.633Z,2.20
2024-03-14T23:41:17.554Z,2.13
2024-03-14T23:43:46.773Z,2.70
2024-03-14T23:46:15.516Z,2.53
2024-03-14T23:48:44.620Z,2.60
2024-03-14T23:51:12.897Z,2.20
2024-03-14T23:53:41.720Z,2.13
2024-03-14T23:56:10.167Z,2.30
2024-03-14T23:58:38.357Z,2.23
